sensor_id;sensor_type;location;lat;lon;timestamp;temperature;humidity
72114;SHT31;59989;46.220;19.888;2023-04-24T00:02:38;11.91;72.41
72114;SHT31;59989;46.220;19.888;2023-04-24T00:05:42;12.07;72.00
72114;SHT31;59989;46.220;19.888;2023-04-24T00:08:45;12.16;71.65
72114;SHT31;59989;46.220;19.888;2023-04-24T00:11:48;12.23;71.27
72114;SHT31;59989;46.220;19.888;2023-04-24T00:14:51;12.30;70.86
72114;SHT31;59989;46.220;19.888;2023-04-24T00:17:53;12.28;70.82
72114;SHT31;59989;46.220;19.888;2023-04-24T00:20:57;12.16;71.89
72114;SHT31;59989;46.220;19.888;2023-04-24T00:24:00;12.12;72.44
72114;SHT31;59989;46.220;19.888;2023-04-24T00:27:03;12.04;72.95
72114;SHT31;59989;46.220;19.888;2023-04-24T00:30:07;12.00;72.95
72114;SHT31;59989;46.220;19.888;2023-04-24T00:33:15;11.97;73.39
72114;SHT31;59989;46.220;19.888;2023-04-24T00:36:17;11.97;73.06
72114;SHT31;59989;46.220;19.888;2023-04-24T00:39:22;11.98;73.16
72114;SHT31;59989;46.220;19.888;2023-04-24T00:42:25;11.98;72.89
72114;SHT31;59989;46.220;19.888;2023-04-24T00:45:28;12.03;72.91
72114;SHT31;59989;46.220;19.888;2023-04-24T00:48:31;12.01;73.10
72114;SHT31;59989;46.220;19.888;2023-04-24T00:51:34;11.98;75.44
72114;SHT31;59989;46.220;19.888;2023-04-24T00:54:36;11.98;75.48
72114;SHT31;59989;46.220;19.888;2023-04-24T00:57:39;11.90;75.54
72114;SHT31;59989;46.220;19.888;2023-04-24T01:00:42;11.83;75.88
72114;SHT31;59989;46.220;19.888;2023-04-24T01:03:46;11.67;76.96
72114;SHT31;59989;46.220;19.888;2023-04-24T01:06:49;11.63;77.86
72114;SHT31;59989;46.220;19.888;2023-04-24T01:09:55;11.56;78.41
72114;SHT31;59989;46.220;19.888;2023-04-24T01:13:00;11.46;79.47
72114;SHT31;59989;46.220;19.888;2023-04-24T01:16:02;11.42;80.17
72114;SHT31;59989;46.220;19.888;2023-04-24T01:19:06;11.38;79.78
72114;SHT31;59989;46.220;19.888;2023-04-24T01:22:12;11.39;79.21
72114;SHT31;59989;46.220;19.888;2023-04-24T01:25:15;11.36;79.60
72114;SHT31;59989;46.220;19.888;2023-04-24T01:28:18;11.36;79.77
72114;SHT31;59989;46.220;19.888;2023-04-24T01:31:21;11.38;79.70
72114;SHT31;59989;46.220;19.888;2023-04-24T01:34:23;11.36;80.09
72114;SHT31;59989;46.220;19.888;2023-04-24T01:37:26;11.27;80.98
72114;SHT31;59989;46.220;19.888;2023-04-24T01:40:32;11.27;80.10
72114;SHT31;59989;46.220;19.888;2023-04-24T01:43:34;11.25;80.74
72114;SHT31;59989;46.220;19.888;2023-04-24T01:46:38;11.25;80.09
72114;SHT31;59989;46.220;19.888;2023-04-24T01:49:40;11.21;79.01
72114;SHT31;59989;46.220;19.888;2023-04-24T01:52:44;11.19;79.36
72114;SHT31;59989;46.220;19.888;2023-04-24T01:55:46;11.21;79.26
72114;SHT31;59989;46.220;19.888;2023-04-24T01:58:53;11.14;79.95
72114;SHT31;59989;46.220;19.888;2023-04-24T02:01:58;11.07;79.99
72114;SHT31;59989;46.220;19.888;2023-04-24T02:05:01;11.07;80.24
72114;SHT31;59989;46.220;19.888;2023-04-24T02:08:03;11.08;79.63
72114;SHT31;59989;46.220;19.888;2023-04-24T02:11:06;11.07;79.12
72114;SHT31;59989;46.220;19.888;2023-04-24T02:14:08;11.01;80.13
72114;SHT31;59989;46.220;19.888;2023-04-24T02:17:14;11.00;80.53
72114;SHT31;59989;46.220;19.888;2023-04-24T02:20:18;10.88;80.99
72114;SHT31;59989;46.220;19.888;2023-04-24T02:23:21;10.87;80.97
72114;SHT31;59989;46.220;19.888;2023-04-24T02:26:23;10.83;81.12
72114;SHT31;59989;46.220;19.888;2023-04-24T02:29:26;10.76;81.69
72114;SHT31;59989;46.220;19.888;2023-04-24T02:32:29;10.67;82.74
72114;SHT31;59989;46.220;19.888;2023-04-24T02:35:33;10.67;82.39
72114;SHT31;59989;46.220;19.888;2023-04-24T02:38:35;10.64;82.95
72114;SHT31;59989;46.220;19.888;2023-04-24T02:41:40;10.59;83.22
72114;SHT31;59989;46.220;19.888;2023-04-24T02:44:43;10.61;83.65
72114;SHT31;59989;46.220;19.888;2023-04-24T02:47:45;10.66;84.11
72114;SHT31;59989;46.220;19.888;2023-04-24T02:50:48;10.66;84.14
72114;SHT31;59989;46.220;19.888;2023-04-24T02:53:51;10.66;83.71
72114;SHT31;59989;46.220;19.888;2023-04-24T02:56:53;10.63;83.86
72114;SHT31;59989;46.220;19.888;2023-04-24T02:59:56;10.61;84.14
72114;SHT31;59989;46.220;19.888;2023-04-24T03:02:58;10.66;84.15
72114;SHT31;59989;46.220;19.888;2023-04-24T03:06:01;10.66;84.15
72114;SHT31;59989;46.220;19.888;2023-04-24T03:09:04;10.61;84.76
72114;SHT31;59989;46.220;19.888;2023-04-24T03:12:07;10.52;84.42
72114;SHT31;59989;46.220;19.888;2023-04-24T03:15:10;10.40;85.07
72114;SHT31;59989;46.220;19.888;2023-04-24T03:18:12;10.33;85.42
72114;SHT31;59989;46.220;19.888;2023-04-24T03:21:15;10.25;85.77
72114;SHT31;59989;46.220;19.888;2023-04-24T03:24:19;10.16;86.15
72114;SHT31;59989;46.220;19.888;2023-04-24T03:27:23;10.06;86.47
72114;SHT31;59989;46.220;19.888;2023-04-24T03:30:34;10.05;86.84
72114;SHT31;59989;46.220;19.888;2023-04-24T03:33:37;10.03;86.82
72114;SHT31;59989;46.220;19.888;2023-04-24T03:36:41;10.05;86.66
72114;SHT31;59989;46.220;19.888;2023-04-24T03:39:44;10.05;86.81
72114;SHT31;59989;46.220;19.888;2023-04-24T03:42:48;10.02;86.69
72114;SHT31;59989;46.220;19.888;2023-04-24T03:45:51;9.97;86.55
72114;SHT31;59989;46.220;19.888;2023-04-24T03:48:54;9.92;86.84
72114;SHT31;59989;46.220;19.888;2023-04-24T03:52:02;9.85;86.73
72114;SHT31;59989;46.220;19.888;2023-04-24T03:55:05;9.82;87.24
72114;SHT31;59989;46.220;19.888;2023-04-24T03:58:14;9.84;87.44
72114;SHT31;59989;46.220;19.888;2023-04-24T04:01:18;9.84;87.68
72114;SHT31;59989;46.220;19.888;2023-04-24T04:04:36;9.78;87.79
72114;SHT31;59989;46.220;19.888;2023-04-24T04:07:39;9.81;87.63
72114;SHT31;59989;46.220;19.888;2023-04-24T04:10:42;9.82;87.54
72114;SHT31;59989;46.220;19.888;2023-04-24T04:13:45;9.85;87.37
72114;SHT31;59989;46.220;19.888;2023-04-24T04:16:52;9.88;87.38
72114;SHT31;59989;46.220;19.888;2023-04-24T04:19:56;9.91;87.22
72114;SHT31;59989;46.220;19.888;2023-04-24T04:22:59;10.01;87.13
72114;SHT31;59989;46.220;19.888;2023-04-24T04:26:14;10.03;86.79
72114;SHT31;59989;46.220;19.888;2023-04-24T04:29:35;10.06;86.70
72114;SHT31;59989;46.220;19.888;2023-04-24T04:32:41;10.11;86.89
72114;SHT31;59989;46.220;19.888;2023-04-24T04:35:43;10.12;86.74
72114;SHT31;59989;46.220;19.888;2023-04-24T04:38:47;10.19;86.75
72114;SHT31;59989;46.220;19.888;2023-04-24T04:42:04;10.23;86.67
72114;SHT31;59989;46.220;19.888;2023-04-24T04:45:13;10.29;86.56
72114;SHT31;59989;46.220;19.888;2023-04-24T04:48:38;10.40;86.50
72114;SHT31;59989;46.220;19.888;2023-04-24T04:51:42;10.49;86.32
72114;SHT31;59989;46.220;19.888;2023-04-24T04:54:45;10.55;86.05
72114;SHT31;59989;46.220;19.888;2023-04-24T04:57:48;10.69;85.87
72114;SHT31;59989;46.220;19.888;2023-04-24T05:00:51;10.74;85.73
72114;SHT31;59989;46.220;19.888;2023-04-24T05:04:02;10.93;85.65
72114;SHT31;59989;46.220;19.888;2023-04-24T05:07:05;11.10;85.03
72114;SHT31;59989;46.220;19.888;2023-04-24T05:10:12;11.21;84.83
72114;SHT31;59989;46.220;19.888;2023-04-24T05:13:15;11.31;84.59
72114;SHT31;59989;46.220;19.888;2023-04-24T05:16:25;11.48;84.37
72114;SHT31;59989;46.220;19.888;2023-04-24T05:19:29;11.54;84.57
72114;SHT31;59989;46.220;19.888;2023-04-24T05:22:32;11.61;84.76
72114;SHT31;59989;46.220;19.888;2023-04-24T05:25:35;11.66;84.78
72114;SHT31;59989;46.220;19.888;2023-04-24T05:28:44;11.61;84.81
72114;SHT31;59989;46.220;19.888;2023-04-24T05:31:47;11.55;85.39
72114;SHT31;59989;46.220;19.888;2023-04-24T05:34:50;11.54;85.78
72114;SHT31;59989;46.220;19.888;2023-04-24T05:37:53;11.63;86.13
72114;SHT31;59989;46.220;19.888;2023-04-24T05:40:56;11.70;86.00
72114;SHT31;59989;46.220;19.888;2023-04-24T05:43:59;11.72;86.24
72114;SHT31;59989;46.220;19.888;2023-04-24T05:47:02;11.76;86.36
72114;SHT31;59989;46.220;19.888;2023-04-24T05:50:06;11.80;86.31
72114;SHT31;59989;46.220;19.888;2023-04-24T05:53:09;11.86;86.38
72114;SHT31;59989;46.220;19.888;2023-04-24T05:56:13;11.98;86.36
72114;SHT31;59989;46.220;19.888;2023-04-24T05:59:16;12.01;86.00
72114;SHT31;59989;46.220;19.888;2023-04-24T06:02:19;12.07;86.45
72114;SHT31;59989;46.220;19.888;2023-04-24T06:05:22;12.14;86.63
72114;SHT31;59989;46.220;19.888;2023-04-24T06:08:28;12.16;86.17
72114;SHT31;59989;46.220;19.888;2023-04-24T06:11:31;12.16;86.25
72114;SHT31;59989;46.220;19.888;2023-04-24T06:14:34;12.14;86.68
72114;SHT31;59989;46.220;19.888;2023-04-24T06:17:51;12.14;86.69
72114;SHT31;59989;46.220;19.888;2023-04-24T06:20:55;12.21;87.03
72114;SHT31;59989;46.220;19.888;2023-04-24T06:23:59;12.17;87.24
72114;SHT31;59989;46.220;19.888;2023-04-24T06:27:02;12.21;87.24
72114;SHT31;59989;46.220;19.888;2023-04-24T06:30:06;12.23;87.33
72114;SHT31;59989;46.220;19.888;2023-04-24T06:33:11;12.18;87.62
72114;SHT31;59989;46.220;19.888;2023-04-24T06:36:22;12.23;87.61
72114;SHT31;59989;46.220;19.888;2023-04-24T06:39:25;12.28;87.90
72114;SHT31;59989;46.220;19.888;2023-04-24T06:42:28;12.21;87.44
72114;SHT31;59989;46.220;19.888;2023-04-24T06:45:34;12.27;87.60
72114;SHT31;59989;46.220;19.888;2023-04-24T06:48:44;12.34;87.48
72114;SHT31;59989;46.220;19.888;2023-04-24T06:51:47;12.48;87.42
72114;SHT31;59989;46.220;19.888;2023-04-24T06:54:50;12.56;87.44
72114;SHT31;59989;46.220;19.888;2023-04-24T06:57:52;12.61;87.33
72114;SHT31;59989;46.220;19.888;2023-04-24T07:00:55;12.71;87.43
72114;SHT31;59989;46.220;19.888;2023-04-24T07:03:57;12.83;87.00
72114;SHT31;59989;46.220;19.888;2023-04-24T07:07:00;12.99;86.98
72114;SHT31;59989;46.220;19.888;2023-04-24T07:10:04;13.13;87.27
72114;SHT31;59989;46.220;19.888;2023-04-24T07:13:07;13.00;86.56
72114;SHT31;59989;46.220;19.888;2023-04-24T07:16:10;12.96;86.55
72114;SHT31;59989;46.220;19.888;2023-04-24T07:19:14;13.00;87.13
72114;SHT31;59989;46.220;19.888;2023-04-24T07:22:17;13.03;87.02
72114;SHT31;59989;46.220;19.888;2023-04-24T07:25:20;13.00;87.08
72114;SHT31;59989;46.220;19.888;2023-04-24T07:28:22;13.14;87.53
72114;SHT31;59989;46.220;19.888;2023-04-24T07:31:25;13.06;87.47
72114;SHT31;59989;46.220;19.888;2023-04-24T07:34:28;13.04;87.43
72114;SHT31;59989;46.220;19.888;2023-04-24T07:37:31;13.14;87.12
72114;SHT31;59989;46.220;19.888;2023-04-24T07:40:34;13.39;86.68
72114;SHT31;59989;46.220;19.888;2023-04-24T07:43:36;13.62;86.19
72114;SHT31;59989;46.220;19.888;2023-04-24T07:46:40;13.71;85.91
72114;SHT31;59989;46.220;19.888;2023-04-24T07:49:43;13.82;85.16
72114;SHT31;59989;46.220;19.888;2023-04-24T07:52:54;13.89;84.39
72114;SHT31;59989;46.220;19.888;2023-04-24T08:00:12;14.23;83.86
72114;SHT31;59989;46.220;19.888;2023-04-24T08:03:44;14.49;82.82
72114;SHT31;59989;46.220;19.888;2023-04-24T08:07:17;14.70;82.11
72114;SHT31;59989;46.220;19.888;2023-04-24T08:10:51;14.95;81.00
72114;SHT31;59989;46.220;19.888;2023-04-24T08:14:02;15.15;81.37
72114;SHT31;59989;46.220;19.888;2023-04-24T08:17:24;15.62;79.74
72114;SHT31;59989;46.220;19.888;2023-04-24T08:20:28;15.45;79.55
72114;SHT31;59989;46.220;19.888;2023-04-24T08:23:31;15.80;79.13
72114;SHT31;59989;46.220;19.888;2023-04-24T08:26:34;15.59;78.92
72114;SHT31;59989;46.220;19.888;2023-04-24T08:29:36;15.60;80.35
72114;SHT31;59989;46.220;19.888;2023-04-24T08:32:42;15.63;79.97
72114;SHT31;59989;46.220;19.888;2023-04-24T08:35:45;16.20;78.50
72114;SHT31;59989;46.220;19.888;2023-04-24T08:38:48;16.00;79.10
72114;SHT31;59989;46.220;19.888;2023-04-24T08:41:52;16.48;76.87
72114;SHT31;59989;46.220;19.888;2023-04-24T08:44:55;16.48;76.55
72114;SHT31;59989;46.220;19.888;2023-04-24T08:47:58;16.49;77.16
72114;SHT31;59989;46.220;19.888;2023-04-24T08:51:02;16.42;77.63
72114;SHT31;59989;46.220;19.888;2023-04-24T08:54:07;16.65;76.93
72114;SHT31;59989;46.220;19.888;2023-04-24T08:57:10;16.76;75.84
72114;SHT31;59989;46.220;19.888;2023-04-24T09:00:14;17.07;75.32
72114;SHT31;59989;46.220;19.888;2023-04-24T09:03:17;17.18;73.86
72114;SHT31;59989;46.220;19.888;2023-04-24T09:11:04;17.61;73.62
72114;SHT31;59989;46.220;19.888;2023-04-24T09:14:08;16.97;73.94
72114;SHT31;59989;46.220;19.888;2023-04-24T09:17:12;17.17;74.60
72114;SHT31;59989;46.220;19.888;2023-04-24T09:20:16;16.91;75.90
72114;SHT31;59989;46.220;19.888;2023-04-24T09:23:19;16.66;76.02
72114;SHT31;59989;46.220;19.888;2023-04-24T09:26:29;16.89;75.27
72114;SHT31;59989;46.220;19.888;2023-04-24T09:29:36;16.68;76.18
72114;SHT31;59989;46.220;19.888;2023-04-24T09:32:39;16.55;76.69
72114;SHT31;59989;46.220;19.888;2023-04-24T09:35:50;16.56;75.69
72114;SHT31;59989;46.220;19.888;2023-04-24T09:38:58;16.42;76.49
72114;SHT31;59989;46.220;19.888;2023-04-24T09:42:01;16.86;75.20
72114;SHT31;59989;46.220;19.888;2023-04-24T09:45:08;16.63;75.19
72114;SHT31;59989;46.220;19.888;2023-04-24T09:48:17;17.06;75.62
72114;SHT31;59989;46.220;19.888;2023-04-24T09:51:33;16.86;75.66
72114;SHT31;59989;46.220;19.888;2023-04-24T09:54:38;16.68;75.71
72114;SHT31;59989;46.220;19.888;2023-04-24T09:57:50;17.24;74.98
72114;SHT31;59989;46.220;19.888;2023-04-24T10:00:55;17.38;74.49
72114;SHT31;59989;46.220;19.888;2023-04-24T10:03:58;17.28;75.96
72114;SHT31;59989;46.220;19.888;2023-04-24T10:07:03;17.59;75.44
72114;SHT31;59989;46.220;19.888;2023-04-24T10:10:09;17.32;74.56
72114;SHT31;59989;46.220;19.888;2023-04-24T10:13:14;17.38;74.27
72114;SHT31;59989;46.220;19.888;2023-04-24T10:16:21;17.21;75.65
72114;SHT31;59989;46.220;19.888;2023-04-24T10:19:25;16.87;77.20
72114;SHT31;59989;46.220;19.888;2023-04-24T10:22:32;16.61;78.34
72114;SHT31;59989;46.220;19.888;2023-04-24T10:25:36;16.21;79.34
72114;SHT31;59989;46.220;19.888;2023-04-24T10:28:39;16.07;80.64
72114;SHT31;59989;46.220;19.888;2023-04-24T10:31:44;15.77;81.74
72114;SHT31;59989;46.220;19.888;2023-04-24T10:34:50;15.73;82.70
72114;SHT31;59989;46.220;19.888;2023-04-24T10:38:15;15.80;83.07
72114;SHT31;59989;46.220;19.888;2023-04-24T10:41:19;15.39;82.45
72114;SHT31;59989;46.220;19.888;2023-04-24T10:44:36;15.18;83.72
72114;SHT31;59989;46.220;19.888;2023-04-24T10:47:42;15.42;84.49
72114;SHT31;59989;46.220;19.888;2023-04-24T10:50:51;15.53;83.92
72114;SHT31;59989;46.220;19.888;2023-04-24T10:53:57;15.63;84.25
72114;SHT31;59989;46.220;19.888;2023-04-24T10:57:34;15.64;83.59
72114;SHT31;59989;46.220;19.888;2023-04-24T11:00:37;15.39;83.87
72114;SHT31;59989;46.220;19.888;2023-04-24T11:03:51;15.43;84.76
72114;SHT31;59989;46.220;19.888;2023-04-24T11:06:57;15.35;84.75
72114;SHT31;59989;46.220;19.888;2023-04-24T11:10:00;15.36;84.83
72114;SHT31;59989;46.220;19.888;2023-04-24T11:13:03;15.49;85.98
72114;SHT31;59989;46.220;19.888;2023-04-24T11:19:33;15.64;85.49
72114;SHT31;59989;46.220;19.888;2023-04-24T11:22:38;15.74;85.02
72114;SHT31;59989;46.220;19.888;2023-04-24T11:25:44;15.60;85.04
72114;SHT31;59989;46.220;19.888;2023-04-24T11:28:48;15.55;84.89
72114;SHT31;59989;46.220;19.888;2023-04-24T11:31:53;15.82;84.57
72114;SHT31;59989;46.220;19.888;2023-04-24T11:35:05;15.40;84.95
72114;SHT31;59989;46.220;19.888;2023-04-24T11:38:09;15.46;85.95
72114;SHT31;59989;46.220;19.888;2023-04-24T11:41:15;15.77;85.07
72114;SHT31;59989;46.220;19.888;2023-04-24T11:44:20;15.93;84.53
72114;SHT31;59989;46.220;19.888;2023-04-24T11:47:30;15.82;84.40
72114;SHT31;59989;46.220;19.888;2023-04-24T11:50:35;15.67;84.63
72114;SHT31;59989;46.220;19.888;2023-04-24T11:53:40;15.94;84.57
72114;SHT31;59989;46.220;19.888;2023-04-24T11:56:46;15.86;84.66
72114;SHT31;59989;46.220;19.888;2023-04-24T11:59:49;16.29;84.30
72114;SHT31;59989;46.220;19.888;2023-04-24T12:03:03;16.35;83.78
72114;SHT31;59989;46.220;19.888;2023-04-24T12:06:09;16.18;84.48
72114;SHT31;59989;46.220;19.888;2023-04-24T12:09:12;16.53;83.95
72114;SHT31;59989;46.220;19.888;2023-04-24T12:12:20;16.36;82.82
72114;SHT31;59989;46.220;19.888;2023-04-24T12:15:23;16.26;83.07
72114;SHT31;59989;46.220;19.888;2023-04-24T12:18:25;16.51;83.39
72114;SHT31;59989;46.220;19.888;2023-04-24T12:21:28;15.90;83.97
72114;SHT31;59989;46.220;19.888;2023-04-24T12:24:32;15.87;84.50
72114;SHT31;59989;46.220;19.888;2023-04-24T12:27:34;15.79;84.32
72114;SHT31;59989;46.220;19.888;2023-04-24T12:30:47;15.79;83.44
72114;SHT31;59989;46.220;19.888;2023-04-24T12:33:51;15.62;83.53
72114;SHT31;59989;46.220;19.888;2023-04-24T12:36:53;15.50;84.48
72114;SHT31;59989;46.220;19.888;2023-04-24T12:43:15;15.25;85.85
72114;SHT31;59989;46.220;19.888;2023-04-24T12:46:19;15.15;85.53
72114;SHT31;59989;46.220;19.888;2023-04-24T12:49:23;15.25;84.88
72114;SHT31;59989;46.220;19.888;2023-04-24T12:52:27;15.14;84.07
72114;SHT31;59989;46.220;19.888;2023-04-24T12:55:30;15.28;85.15
72114;SHT31;59989;46.220;19.888;2023-04-24T12:58:33;15.69;84.83
72114;SHT31;59989;46.220;19.888;2023-04-24T13:01:36;15.67;85.20
72114;SHT31;59989;46.220;19.888;2023-04-24T13:04:38;15.97;84.34
72114;SHT31;59989;46.220;19.888;2023-04-24T13:07:41;15.76;83.80
72114;SHT31;59989;46.220;19.888;2023-04-24T13:10:44;15.53;84.45
72114;SHT31;59989;46.220;19.888;2023-04-24T13:13:47;15.62;84.57
72114;SHT31;59989;46.220;19.888;2023-04-24T13:16:49;15.62;83.41
72114;SHT31;59989;46.220;19.888;2023-04-24T13:19:54;15.64;83.72
72114;SHT31;59989;46.220;19.888;2023-04-24T13:22:56;15.38;83.94
72114;SHT31;59989;46.220;19.888;2023-04-24T13:25:59;15.42;84.24
72114;SHT31;59989;46.220;19.888;2023-04-24T13:29:05;15.34;84.35
72114;SHT31;59989;46.220;19.888;2023-04-24T13:32:08;15.28;83.69
72114;SHT31;59989;46.220;19.888;2023-04-24T13:35:11;15.24;84.40
72114;SHT31;59989;46.220;19.888;2023-04-24T13:38:14;15.24;84.36
72114;SHT31;59989;46.220;19.888;2023-04-24T13:41:16;15.34;84.30
72114;SHT31;59989;46.220;19.888;2023-04-24T13:44:20;15.40;84.03
72114;SHT31;59989;46.220;19.888;2023-04-24T13:47:23;15.45;84.00
72114;SHT31;59989;46.220;19.888;2023-04-24T13:50:25;15.53;83.81
72114;SHT31;59989;46.220;19.888;2023-04-24T13:53:28;15.74;83.31
72114;SHT31;59989;46.220;19.888;2023-04-24T13:56:30;15.71;83.46
72114;SHT31;59989;46.220;19.888;2023-04-24T13:59:34;15.79;82.42
72114;SHT31;59989;46.220;19.888;2023-04-24T14:02:36;15.67;83.01
72114;SHT31;59989;46.220;19.888;2023-04-24T14:05:40;15.59;82.76
72114;SHT31;59989;46.220;19.888;2023-04-24T14:08:42;15.39;83.10
72114;SHT31;59989;46.220;19.888;2023-04-24T14:11:48;15.40;82.29
72114;SHT31;59989;46.220;19.888;2023-04-24T14:14:51;15.39;82.55
72114;SHT31;59989;46.220;19.888;2023-04-24T14:17:53;15.40;82.29
72114;SHT31;59989;46.220;19.888;2023-04-24T14:20:56;15.40;82.53
72114;SHT31;59989;46.220;19.888;2023-04-24T14:23:59;15.42;81.31
72114;SHT31;59989;46.220;19.888;2023-04-24T14:27:01;15.60;81.37
72114;SHT31;59989;46.220;19.888;2023-04-24T14:30:05;15.66;81.18
72114;SHT31;59989;46.220;19.888;2023-04-24T14:33:08;15.86;80.33
72114;SHT31;59989;46.220;19.888;2023-04-24T14:36:11;15.77;79.24
72114;SHT31;59989;46.220;19.888;2023-04-24T14:39:13;15.79;79.80
72114;SHT31;59989;46.220;19.888;2023-04-24T14:42:16;15.66;79.77
72114;SHT31;59989;46.220;19.888;2023-04-24T14:45:19;15.69;80.31
72114;SHT31;59989;46.220;19.888;2023-04-24T14:48:22;15.70;80.34
72114;SHT31;59989;46.220;19.888;2023-04-24T14:51:26;15.59;80.77
72114;SHT31;59989;46.220;19.888;2023-04-24T14:54:29;15.69;80.48
72114;SHT31;59989;46.220;19.888;2023-04-24T14:57:33;15.71;79.75
72114;SHT31;59989;46.220;19.888;2023-04-24T15:00:37;15.64;79.87
72114;SHT31;59989;46.220;19.888;2023-04-24T15:03:39;15.56;80.77
72114;SHT31;59989;46.220;19.888;2023-04-24T15:06:42;15.40;81.48
72114;SHT31;59989;46.220;19.888;2023-04-24T15:09:45;15.43;81.26
72114;SHT31;59989;46.220;19.888;2023-04-24T15:12:49;15.47;80.99
72114;SHT31;59989;46.220;19.888;2023-04-24T15:15:52;15.42;81.31
72114;SHT31;59989;46.220;19.888;2023-04-24T15:18:54;15.56;81.41
72114;SHT31;59989;46.220;19.888;2023-04-24T15:21:58;15.73;80.58
72114;SHT31;59989;46.220;19.888;2023-04-24T15:25:01;15.80;80.29
72114;SHT31;59989;46.220;19.888;2023-04-24T15:28:05;15.91;79.45
72114;SHT31;59989;46.220;19.888;2023-04-24T15:31:12;16.00;78.28
72114;SHT31;59989;46.220;19.888;2023-04-24T15:34:14;16.04;78.55
72114;SHT31;59989;46.220;19.888;2023-04-24T15:37:17;15.91;79.37
72114;SHT31;59989;46.220;19.888;2023-04-24T15:40:19;15.83;79.57
72114;SHT31;59989;46.220;19.888;2023-04-24T15:43:23;15.66;80.56
72114;SHT31;59989;46.220;19.888;2023-04-24T15:46:25;15.55;81.81
72114;SHT31;59989;46.220;19.888;2023-04-24T15:49:28;15.56;81.55
72114;SHT31;59989;46.220;19.888;2023-04-24T15:52:31;15.34;82.46
72114;SHT31;59989;46.220;19.888;2023-04-24T15:55:34;15.31;83.26
72114;SHT31;59989;46.220;19.888;2023-04-24T15:58:38;15.39;84.04
72114;SHT31;59989;46.220;19.888;2023-04-24T16:01:41;15.36;84.10
72114;SHT31;59989;46.220;19.888;2023-04-24T16:04:45;15.29;82.64
72114;SHT31;59989;46.220;19.888;2023-04-24T16:07:51;15.21;82.15
72114;SHT31;59989;46.220;19.888;2023-04-24T16:10:54;15.16;82.02
72114;SHT31;59989;46.220;19.888;2023-04-24T16:13:57;15.08;82.61
72114;SHT31;59989;46.220;19.888;2023-04-24T16:17:00;15.05;82.99
72114;SHT31;59989;46.220;19.888;2023-04-24T16:20:04;15.04;83.35
72114;SHT31;59989;46.220;19.888;2023-04-24T16:23:07;15.14;83.73
72114;SHT31;59989;46.220;19.888;2023-04-24T16:26:13;15.08;84.19
72114;SHT31;59989;46.220;19.888;2023-04-24T16:29:16;15.04;84.59
72114;SHT31;59989;46.220;19.888;2023-04-24T16:32:22;15.09;84.67
72114;SHT31;59989;46.220;19.888;2023-04-24T16:35:25;15.08;84.87
72114;SHT31;59989;46.220;19.888;2023-04-24T16:38:28;15.06;85.04
72114;SHT31;59989;46.220;19.888;2023-04-24T16:41:31;15.05;85.33
72114;SHT31;59989;46.220;19.888;2023-04-24T16:44:33;15.02;85.47
72114;SHT31;59989;46.220;19.888;2023-04-24T16:47:36;14.98;85.51
72114;SHT31;59989;46.220;19.888;2023-04-24T16:50:39;14.98;85.13
72114;SHT31;59989;46.220;19.888;2023-04-24T16:53:42;14.97;85.07
72114;SHT31;59989;46.220;19.888;2023-04-24T16:56:45;14.91;85.09
72114;SHT31;59989;46.220;19.888;2023-04-24T16:59:47;14.91;85.17
72114;SHT31;59989;46.220;19.888;2023-04-24T17:02:50;14.89;85.04
72114;SHT31;59989;46.220;19.888;2023-04-24T17:05:53;14.94;84.86
72114;SHT31;59989;46.220;19.888;2023-04-24T17:08:56;14.91;85.13
72114;SHT31;59989;46.220;19.888;2023-04-24T17:11:58;14.89;85.03
72114;SHT31;59989;46.220;19.888;2023-04-24T17:15:01;14.89;85.17
72114;SHT31;59989;46.220;19.888;2023-04-24T17:18:04;14.85;85.46
72114;SHT31;59989;46.220;19.888;2023-04-24T17:21:09;14.78;85.72
72114;SHT31;59989;46.220;19.888;2023-04-24T17:24:11;14.73;86.17
72114;SHT31;59989;46.220;19.888;2023-04-24T17:27:14;14.63;86.11
72114;SHT31;59989;46.220;19.888;2023-04-24T17:30:18;14.56;86.43
72114;SHT31;59989;46.220;19.888;2023-04-24T17:33:21;14.50;86.62
72114;SHT31;59989;46.220;19.888;2023-04-24T17:36:25;14.49;86.86
72114;SHT31;59989;46.220;19.888;2023-04-24T17:39:28;14.41;87.18
72114;SHT31;59989;46.220;19.888;2023-04-24T17:42:32;14.39;87.34
72114;SHT31;59989;46.220;19.888;2023-04-24T17:45:38;14.36;87.48
72114;SHT31;59989;46.220;19.888;2023-04-24T17:48:40;14.37;87.71
72114;SHT31;59989;46.220;19.888;2023-04-24T17:51:43;14.34;87.98
72114;SHT31;59989;46.220;19.888;2023-04-24T17:54:46;14.29;88.03
72114;SHT31;59989;46.220;19.888;2023-04-24T17:57:51;14.22;88.32
72114;SHT31;59989;46.220;19.888;2023-04-24T18:00:54;14.19;88.70
72114;SHT31;59989;46.220;19.888;2023-04-24T18:03:57;14.15;88.75
72114;SHT31;59989;46.220;19.888;2023-04-24T18:07:00;14.10;88.99
72114;SHT31;59989;46.220;19.888;2023-04-24T18:10:03;14.10;89.23
72114;SHT31;59989;46.220;19.888;2023-04-24T18:13:05;14.05;89.36
72114;SHT31;59989;46.220;19.888;2023-04-24T18:16:08;14.02;89.51
72114;SHT31;59989;46.220;19.888;2023-04-24T18:19:11;13.98;89.69
72114;SHT31;59989;46.220;19.888;2023-04-24T18:22:15;13.99;89.98
72114;SHT31;59989;46.220;19.888;2023-04-24T18:25:18;13.97;89.91
72114;SHT31;59989;46.220;19.888;2023-04-24T18:28:27;13.94;89.78
72114;SHT31;59989;46.220;19.888;2023-04-24T18:31:33;13.94;89.95
72114;SHT31;59989;46.220;19.888;2023-04-24T18:34:36;13.92;89.90
72114;SHT31;59989;46.220;19.888;2023-04-24T18:37:38;13.91;89.93
72114;SHT31;59989;46.220;19.888;2023-04-24T18:40:42;13.85;90.24
72114;SHT31;59989;46.220;19.888;2023-04-24T18:43:45;13.82;90.27
72114;SHT31;59989;46.220;19.888;2023-04-24T18:46:49;13.75;90.42
72114;SHT31;59989;46.220;19.888;2023-04-24T18:49:52;13.77;90.28
72114;SHT31;59989;46.220;19.888;2023-04-24T18:52:56;13.77;90.24
72114;SHT31;59989;46.220;19.888;2023-04-24T18:55:59;13.77;90.27
72114;SHT31;59989;46.220;19.888;2023-04-24T18:59:02;13.72;90.49
72114;SHT31;59989;46.220;19.888;2023-04-24T19:02:06;13.68;90.49
72114;SHT31;59989;46.220;19.888;2023-04-24T19:05:09;13.68;90.58
72114;SHT31;59989;46.220;19.888;2023-04-24T19:08:13;13.71;90.73
72114;SHT31;59989;46.220;19.888;2023-04-24T19:11:18;13.68;90.78
72114;SHT31;59989;46.220;19.888;2023-04-24T19:14:21;13.70;90.74
72114;SHT31;59989;46.220;19.888;2023-04-24T19:17:24;13.62;90.81
72114;SHT31;59989;46.220;19.888;2023-04-24T19:20:30;13.57;90.76
72114;SHT31;59989;46.220;19.888;2023-04-24T19:23:33;13.55;90.85
72114;SHT31;59989;46.220;19.888;2023-04-24T19:26:38;13.55;90.72